createdAt,value
2019-03-25T00:00:09.275Z,56.46
2019-03-25T00:02:42.850Z,56.40
2019-03-25T00:05:14.286Z,56.41
2019-03-25T00:07:45.445Z,56.45
2019-03-25T00:10:16.561Z,56.72
2019-03-25T00:12:48.130Z,56.79
2019-03-25T00:15:19.311Z,56.89
2019-03-25T00:17:50.622Z,57.25
2019-03-25T00:20:22.073Z,57.50
2019-03-25T00:22:53.644Z,57.61
2019-03-25T00:25:25.040Z,57.81
2019-03-25T00:27:56.187Z,57.84
2019-03-25T00:30:27.373Z,57.78
2019-03-25T00:32:58.519Z,57.96
2019-03-25T00:35:30.070Z,58.55
2019-03-25T00:38:02.056Z,58.73
2019-03-25T00:40:33.582Z,58.99
2019-03-25T00:43:04.968Z,59.17
2019-03-25T00:45:36.214Z,59.28
2019-03-25T00:48:07.841Z,59.19
2019-03-25T00:50:39.110Z,59.45
2019-03-25T00:53:10.421Z,59.24
2019-03-25T00:55:41.890Z,59.44
2019-03-25T00:58:14.065Z,59.81
2019-03-25T01:00:46.271Z,59.84
2019-03-25T01:03:18.355Z,59.96
2019-03-25T01:05:49.595Z,60.07
2019-03-25T01:08:21.776Z,59.73
2019-03-25T01:10:52.819Z,59.81
2019-03-25T01:13:24.409Z,60.08
2019-03-25T01:15:55.852Z,60.11
2019-03-25T01:18:26.979Z,60.22
2019-03-25T01:20:58.164Z,60.02
2019-03-25T01:23:29.442Z,60.01
2019-03-25T01:26:00.953Z,60.07
2019-03-25T01:28:32.254Z,60.10
2019-03-25T01:31:03.578Z,60.20
2019-03-25T01:33:36.070Z,60.02
2019-03-25T01:36:07.474Z,59.90
2019-03-25T01:38:38.928Z,60.25
2019-03-25T01:41:10.089Z,60.30
2019-03-25T01:43:41.524Z,60.39
2019-03-25T01:46:12.914Z,60.53
2019-03-25T01:48:44.511Z,60.65
2019-03-25T01:51:15.731Z,60.80
2019-03-25T01:53:48.008Z,60.90
2019-03-25T01:56:19.417Z,61.21
2019-03-25T01:58:50.869Z,61.48
2019-03-25T02:01:22.098Z,61.86
2019-03-25T02:03:54.441Z,62.26
2019-03-25T02:06:26.026Z,62.39
2019-03-25T02:08:57.106Z,62.34
2019-03-25T02:11:28.546Z,62.41
2019-03-25T02:13:59.733Z,62.59
2019-03-25T02:16:31.522Z,62.94
2019-03-25T02:19:03.731Z,63.20
2019-03-25T02:21:35.154Z,63.48
2019-03-25T02:24:06.475Z,63.45
2019-03-25T02:26:37.988Z,63.73
2019-03-25T02:29:09.334Z,63.94
2019-03-25T02:31:40.765Z,64.05
2019-03-25T02:34:12.139Z,64.39
2019-03-25T02:36:43.762Z,64.45
2019-03-25T02:39:15.146Z,64.64
2019-03-25T02:41:46.587Z,65.07
2019-03-25T02:44:18.012Z,65.11
2019-03-25T02:46:50.457Z,65.25
2019-03-25T02:49:22.106Z,65.46
2019-03-25T02:51:53.524Z,65.57
2019-03-25T02:54:24.684Z,65.63
2019-03-25T02:56:55.895Z,65.94
2019-03-25T02:59:27.110Z,66.12
2019-03-25T03:01:58.428Z,66.36
2019-03-25T03:04:30.855Z,66.16
2019-03-25T03:07:02.119Z,66.61
2019-03-25T03:09:33.598Z,66.71
2019-03-25T03:12:05.116Z,66.89
2019-03-25T03:14:36.957Z,67.14
2019-03-25T03:17:09.137Z,67.16
2019-03-25T03:19:40.659Z,67.41
2019-03-25T03:22:12.186Z,67.63
2019-03-25T03:24:43.608Z,67.85
2019-03-25T03:27:15.091Z,68.01
2019-03-25T03:29:46.850Z,68.48
2019-03-25T03:32:18.157Z,68.55
2019-03-25T03:34:49.551Z,69.17
2019-03-25T03:37:22.217Z,70.17
2019-03-25T03:39:53.432Z,71.41
2019-03-25T03:42:25.611Z,71.87
2019-03-25T03:44:56.849Z,72.26
2019-03-25T03:47:28.528Z,72.52
2019-03-25T03:49:59.942Z,72.68
2019-03-25T03:52:31.494Z,72.50
2019-03-25T03:55:05.290Z,72.78
2019-03-25T03:57:37.342Z,72.26
2019-03-25T04:00:10.437Z,72.71
2019-03-25T04:02:43.173Z,73.34
2019-03-25T04:05:15.126Z,74.18
2019-03-25T04:07:46.337Z,74.26
2019-03-25T04:10:17.844Z,74.43
2019-03-25T04:12:49.017Z,74.17
2019-03-25T04:15:29.647Z,70.17
2019-03-25T04:18:01.915Z,69.47
2019-03-25T04:20:32.997Z,67.29
2019-03-25T04:23:04.811Z,66.74
2019-03-25T04:25:37.373Z,66.62
2019-03-25T04:28:10.140Z,65.54
2019-03-25T04:30:41.610Z,65.74
2019-03-25T04:33:13.081Z,65.74
2019-03-25T04:35:44.501Z,65.18
2019-03-25T04:38:15.977Z,64.77
2019-03-25T04:40:46.986Z,64.54
2019-03-25T04:43:18.561Z,64.20
2019-03-25T04:45:49.821Z,63.48
2019-03-25T04:48:21.014Z,62.82
2019-03-25T04:50:52.378Z,63.09
2019-03-25T04:53:24.179Z,62.70
2019-03-25T04:55:55.584Z,62.03
2019-03-25T04:58:27.224Z,61.49
2019-03-25T05:00:58.835Z,61.36
2019-03-25T05:03:30.327Z,61.02
2019-03-25T05:06:03.482Z,60.62
2019-03-25T05:08:35.862Z,59.87
2019-03-25T05:11:08.286Z,58.96
2019-03-25T05:13:39.549Z,58.62
2019-03-25T05:16:10.700Z,58.33
2019-03-25T05:18:42.598Z,57.83
2019-03-25T05:21:14.235Z,57.29
2019-03-25T05:23:45.782Z,56.97
2019-03-25T05:26:17.645Z,56.73
2019-03-25T05:28:49.422Z,56.05
2019-03-25T05:31:23.184Z,55.90
2019-03-25T05:33:54.713Z,57.60
2019-03-25T05:36:26.239Z,58.58
2019-03-25T05:38:57.729Z,59.27
2019-03-25T05:41:29.176Z,59.12
2019-03-25T05:44:00.626Z,58.79
2019-03-25T05:46:32.041Z,58.51
2019-03-25T05:49:03.372Z,57.89
2019-03-25T05:51:34.981Z,57.31
2019-03-25T05:54:06.800Z,57.32
2019-03-25T05:56:38.261Z,57.22
2019-03-25T05:59:10.444Z,56.65
2019-03-25T06:01:44.097Z,55.97
2019-03-25T06:04:14.896Z,55.98
2019-03-25T06:06:47.275Z,55.76
2019-03-25T06:09:19.818Z,55.63
2019-03-25T06:11:51.720Z,55.18
2019-03-25T06:14:23.140Z,54.56
2019-03-25T06:16:54.388Z,54.10
2019-03-25T06:19:25.831Z,53.82
2019-03-25T06:21:57.237Z,53.55
2019-03-25T06:24:28.967Z,53.46
2019-03-25T06:27:00.166Z,52.76
2019-03-25T06:29:32.095Z,52.45
2019-03-25T06:32:04.732Z,51.97
2019-03-25T06:34:35.993Z,51.63
2019-03-25T06:37:07.470Z,51.03
2019-03-25T06:39:38.878Z,50.92
2019-03-25T06:42:10.961Z,50.67
2019-03-25T06:44:42.294Z,50.77
2019-03-25T06:47:13.599Z,50.54
2019-03-25T06:49:44.808Z,49.85
2019-03-25T06:52:17.048Z,49.54
2019-03-25T06:54:49.075Z,48.78
2019-03-25T06:57:25.817Z,48.27
2019-03-25T06:59:54.907Z,47.57
2019-03-25T07:02:44.821Z,47.50
2019-03-25T07:05:16.547Z,47.84
2019-03-25T07:07:48.062Z,46.69
2019-03-25T07:10:30.521Z,46.64
2019-03-25T07:13:02.792Z,46.48
2019-03-25T07:15:34.168Z,45.87
2019-03-25T07:18:05.577Z,45.94
2019-03-25T07:20:36.886Z,46.86
2019-03-25T07:23:08.155Z,46.13
2019-03-25T07:25:40.702Z,45.88
2019-03-25T07:28:11.790Z,45.00
2019-03-25T07:30:43.348Z,44.64
2019-03-25T07:33:14.594Z,45.21
2019-03-25T07:35:46.656Z,45.45
2019-03-25T07:38:18.211Z,45.20
2019-03-25T07:40:51.462Z,44.67
2019-03-25T07:43:25.164Z,44.27
2019-03-25T07:45:57.308Z,43.91
2019-03-25T07:48:28.497Z,44.02
2019-03-25T07:50:59.812Z,45.05
2019-03-25T07:53:31.914Z,43.47
2019-03-25T07:56:03.434Z,42.79
2019-03-25T07:58:36.884Z,42.48
2019-03-25T08:01:08.420Z,41.07
2019-03-25T08:03:41.846Z,39.14
2019-03-25T08:06:13.443Z,36.94
2019-03-25T08:08:45.585Z,35.35
2019-03-25T08:11:17.910Z,34.15
2019-03-25T08:13:52.857Z,34.57
2019-03-25T08:16:25.260Z,35.13
2019-03-25T08:18:57.543Z,34.98
2019-03-25T08:21:29.723Z,34.84
2019-03-25T08:24:01.107Z,34.50
2019-03-25T08:26:32.382Z,35.47
2019-03-25T08:29:03.629Z,35.74
2019-03-25T08:31:34.916Z,35.64
2019-03-25T08:34:06.193Z,34.43
2019-03-25T08:36:37.495Z,35.20
2019-03-25T08:39:08.652Z,34.29
2019-03-25T08:41:39.937Z,34.78
2019-03-25T08:44:12.248Z,34.61
2019-03-25T08:46:43.355Z,34.03
2019-03-25T08:49:15.131Z,34.63
2019-03-25T08:51:52.110Z,33.84
2019-03-25T08:54:27.864Z,33.71
2019-03-25T08:56:59.408Z,33.39
2019-03-25T08:59:31.732Z,33.13
2019-03-25T09:02:03.931Z,32.83
2019-03-25T09:04:35.304Z,32.84
2019-03-25T09:07:08.696Z,34.93
2019-03-25T09:09:41.668Z,33.07
2019-03-25T09:12:14.017Z,32.10
2019-03-25T09:14:54.657Z,32.91
2019-03-25T09:17:28.310Z,32.63
2019-03-25T09:20:01.545Z,32.74
2019-03-25T09:22:34.956Z,33.84
2019-03-25T09:25:07.555Z,33.56
2019-03-25T09:27:39.997Z,33.99
2019-03-25T09:30:11.695Z,32.90
2019-03-25T09:32:43.071Z,32.33
2019-03-25T09:35:15.468Z,31.87
2019-03-25T09:37:48.496Z,31.41
2019-03-25T09:40:23.396Z,31.34
2019-03-25T09:42:54.765Z,31.03
2019-03-25T09:45:30.999Z,30.82
2019-03-25T09:48:02.682Z,30.61
2019-03-25T09:50:34.167Z,30.52
2019-03-25T09:53:05.597Z,30.40
2019-03-25T09:55:37.140Z,29.93
2019-03-25T09:58:08.415Z,29.68
2019-03-25T10:00:39.574Z,30.30
2019-03-25T10:03:11.847Z,30.60
2019-03-25T10:05:42.887Z,31.58
2019-03-25T10:08:19.304Z,32.15
2019-03-25T10:10:51.593Z,32.11
2019-03-25T10:13:23.328Z,32.18
2019-03-25T10:15:56.802Z,31.92
2019-03-25T10:18:28.120Z,31.71
2019-03-25T10:21:00.003Z,31.30
2019-03-25T10:23:32.031Z,30.51
2019-03-25T10:26:03.223Z,30.72
2019-03-25T10:28:34.596Z,30.21
2019-03-25T10:31:05.770Z,30.28
2019-03-25T10:33:37.023Z,30.61
2019-03-25T10:36:08.474Z,30.96
2019-03-25T10:38:44.356Z,30.06
2019-03-25T10:41:16.689Z,28.77
2019-03-25T10:43:49.494Z,28.77
2019-03-25T10:46:22.005Z,28.52
2019-03-25T10:48:54.250Z,28.79
2019-03-25T10:51:25.617Z,28.23
2019-03-25T10:53:57.040Z,27.42
2019-03-25T10:56:29.462Z,28.15
2019-03-25T10:59:01.858Z,26.85
2019-03-25T11:01:33.069Z,27.48
2019-03-25T11:04:04.387Z,27.68
2019-03-25T11:06:35.724Z,27.72
2019-03-25T11:09:07.451Z,27.49
2019-03-25T11:11:39.677Z,27.23
2019-03-25T11:14:12.036Z,27.25
2019-03-25T11:16:43.199Z,26.37
2019-03-25T11:19:14.544Z,25.08
2019-03-25T11:21:53.468Z,24.66
2019-03-25T11:24:26.241Z,24.65
2019-03-25T11:26:58.488Z,24.11
2019-03-25T11:29:30.670Z,25.72
2019-03-25T11:32:02.300Z,25.24
2019-03-25T11:34:33.986Z,24.08
2019-03-25T11:37:05.145Z,24.06
2019-03-25T11:39:37.476Z,23.17
2019-03-25T11:42:11.677Z,24.08
2019-03-25T11:44:47.049Z,23.67
2019-03-25T11:47:18.350Z,24.18
2019-03-25T11:49:52.240Z,23.90
2019-03-25T11:52:30.117Z,23.55
2019-03-25T11:55:02.503Z,24.14
2019-03-25T11:57:35.546Z,24.63
2019-03-25T12:00:08.591Z,24.60
2019-03-25T12:02:41.453Z,24.31
2019-03-25T12:05:12.812Z,24.48
2019-03-25T12:07:47.072Z,23.93
2019-03-25T12:10:19.371Z,23.45
2019-03-25T12:12:51.587Z,23.53
2019-03-25T12:15:24.953Z,23.46
2019-03-25T12:18:01.523Z,23.10
2019-03-25T12:20:33.047Z,22.99
2019-03-25T12:23:10.815Z,22.70
2019-03-25T12:25:42.268Z,21.83
2019-03-25T12:28:13.698Z,20.58
2019-03-25T12:30:44.921Z,21.55
2019-03-25T12:33:17.220Z,20.97
2019-03-25T12:35:48.635Z,21.21
2019-03-25T12:38:20.255Z,21.73
2019-03-25T12:40:52.632Z,20.79
2019-03-25T12:43:23.704Z,22.15
2019-03-25T12:45:54.958Z,21.66
2019-03-25T12:48:26.809Z,21.37
2019-03-25T12:50:58.592Z,23.16
2019-03-25T12:53:29.764Z,24.17
2019-03-25T12:56:02.247Z,24.78
2019-03-25T12:58:33.520Z,26.32
2019-03-25T13:01:08.659Z,27.28
2019-03-25T13:03:40.958Z,28.59
2019-03-25T13:06:14.365Z,28.29
2019-03-25T13:08:45.986Z,28.33
2019-03-25T13:11:17.394Z,28.51
2019-03-25T13:13:56.468Z,28.39
2019-03-25T13:16:36.745Z,28.96
2019-03-25T13:19:20.194Z,28.24
2019-03-25T13:21:56.391Z,27.87
2019-03-25T13:24:41.585Z,27.28
2019-03-25T13:27:18.282Z,27.52
2019-03-25T13:29:59.210Z,27.21
2019-03-25T13:32:37.235Z,26.86
2019-03-25T13:35:42.144Z,28.25
2019-03-25T13:38:22.824Z,27.73
2019-03-25T13:40:59.107Z,27.54
2019-03-25T13:43:35.567Z,28.12
2019-03-25T13:46:10.481Z,28.77
2019-03-25T13:48:44.904Z,28.92
2019-03-25T13:51:19.410Z,28.96
2019-03-25T13:53:59.834Z,29.14
2019-03-25T13:56:32.207Z,29.65
2019-03-25T13:59:03.637Z,29.61
2019-03-25T14:01:35.503Z,29.81
2019-03-25T14:04:06.781Z,30.25
2019-03-25T14:06:40.194Z,30.57
2019-03-25T14:09:11.832Z,30.92
2019-03-25T14:11:44.364Z,31.11
2019-03-25T14:14:16.678Z,31.56
2019-03-25T14:16:49.081Z,31.46
2019-03-25T14:19:32.442Z,31.81
2019-03-25T14:22:03.866Z,31.62
2019-03-25T14:24:39.479Z,31.15
2019-03-25T14:27:13.006Z,31.78
2019-03-25T14:29:44.385Z,31.24
2019-03-25T14:32:15.707Z,31.53
2019-03-25T14:34:47.153Z,32.80
2019-03-25T14:37:21.226Z,33.50
2019-03-25T14:39:53.394Z,33.81
2019-03-25T14:42:25.414Z,33.43
2019-03-25T14:45:00.655Z,33.39
2019-03-25T14:47:33.403Z,33.18
2019-03-25T14:50:06.727Z,32.80
2019-03-25T14:52:38.074Z,31.68
2019-03-25T14:55:10.087Z,31.80
2019-03-25T14:57:41.639Z,31.72
2019-03-25T15:00:13.257Z,30.00
2019-03-25T15:02:45.065Z,30.22
2019-03-25T15:05:16.443Z,29.85
2019-03-25T15:07:48.775Z,29.73
2019-03-25T15:10:21.533Z,29.57
2019-03-25T15:12:57.023Z,29.63
2019-03-25T15:15:31.333Z,29.64
2019-03-25T15:18:03.708Z,29.84
2019-03-25T15:20:34.981Z,29.97
2019-03-25T15:23:08.527Z,31.08
2019-03-25T15:25:44.386Z,32.14
2019-03-25T15:28:15.714Z,33.12
2019-03-25T15:30:47.286Z,34.76
2019-03-25T15:33:20.694Z,36.05
2019-03-25T15:35:52.911Z,37.25
2019-03-25T15:38:25.549Z,37.42
2019-03-25T15:40:57.071Z,40.21
2019-03-25T15:43:28.761Z,41.29
2019-03-25T15:46:00.662Z,42.18
2019-03-25T15:48:32.870Z,42.80
2019-03-25T15:51:04.063Z,43.57
2019-03-25T15:53:35.466Z,44.08
2019-03-25T15:56:08.701Z,44.51
2019-03-25T15:58:40.128Z,45.21
2019-03-25T16:01:12.964Z,45.84
2019-03-25T16:03:44.138Z,46.26
2019-03-25T16:06:15.742Z,46.49
2019-03-25T16:08:46.980Z,47.80
2019-03-25T16:11:18.763Z,48.04
2019-03-25T16:13:49.877Z,48.18
2019-03-25T16:16:22.023Z,48.64
2019-03-25T16:18:53.185Z,48.71
2019-03-25T16:21:24.587Z,48.86
2019-03-25T16:23:55.761Z,49.23
2019-03-25T16:26:26.974Z,49.41
2019-03-25T16:28:58.419Z,49.73
2019-03-25T16:31:29.553Z,49.95
2019-03-25T16:34:00.789Z,50.11
2019-03-25T16:36:32.107Z,50.38
2019-03-25T16:39:04.303Z,50.39
2019-03-25T16:41:37.089Z,50.62
2019-03-25T16:44:08.384Z,50.66
2019-03-25T16:46:39.612Z,50.83
2019-03-25T16:49:11.840Z,51.06
2019-03-25T16:51:43.062Z,51.37
2019-03-25T16:54:15.268Z,51.45
2019-03-25T16:56:47.126Z,52.45
2019-03-25T16:59:18.441Z,53.04
2019-03-25T17:01:49.939Z,53.39
2019-03-25T17:04:21.405Z,54.49
2019-03-25T17:06:53.604Z,54.16
2019-03-25T17:09:26.154Z,54.02
2019-03-25T17:11:57.834Z,54.63
2019-03-25T17:14:29.085Z,55.32
2019-03-25T17:17:02.470Z,55.74
2019-03-25T17:19:33.728Z,57.55
2019-03-25T17:22:06.038Z,57.91
2019-03-25T17:24:37.601Z,56.94
2019-03-25T17:27:08.760Z,55.46
2019-03-25T17:29:41.197Z,55.79
2019-03-25T17:32:13.013Z,56.88
2019-03-25T17:34:44.278Z,56.33
2019-03-25T17:37:17.393Z,56.44
2019-03-25T17:39:48.881Z,57.14
2019-03-25T17:42:20.029Z,57.90
2019-03-25T17:44:51.204Z,57.43
2019-03-25T17:47:22.365Z,57.58
2019-03-25T17:49:55.301Z,57.64
2019-03-25T17:52:28.190Z,58.29
2019-03-25T17:54:59.677Z,57.70
2019-03-25T17:57:31.191Z,58.68
2019-03-25T18:00:03.047Z,59.13
2019-03-25T18:02:39.531Z,59.94
2019-03-25T18:05:11.523Z,60.01
2019-03-25T18:07:42.870Z,60.64
2019-03-25T18:10:16.293Z,60.57
2019-03-25T18:12:47.676Z,60.33
2019-03-25T18:15:19.235Z,60.09
2019-03-25T18:17:51.711Z,61.11
2019-03-25T18:20:23.036Z,60.43
2019-03-25T18:22:54.231Z,59.76
2019-03-25T18:25:25.589Z,59.48
2019-03-25T18:27:56.877Z,59.75
2019-03-25T18:30:35.822Z,59.61
2019-03-25T18:33:07.083Z,59.67
2019-03-25T18:35:38.307Z,59.99
2019-03-25T18:38:10.477Z,60.67
2019-03-25T18:40:41.761Z,60.71
2019-03-25T18:43:13.376Z,60.90
2019-03-25T18:45:47.941Z,61.04
2019-03-25T18:48:19.372Z,60.63
2019-03-25T18:50:50.940Z,60.38
2019-03-25T18:53:22.195Z,60.33
2019-03-25T18:55:55.261Z,60.72
2019-03-25T18:58:27.121Z,59.98
2019-03-25T19:01:00.919Z,60.63
2019-03-25T19:03:35.360Z,60.18
2019-03-25T19:06:06.851Z,59.54
2019-03-25T19:08:45.191Z,59.29
2019-03-25T19:11:17.846Z,59.29
2019-03-25T19:13:49.025Z,59.45
2019-03-25T19:16:20.171Z,59.20
2019-03-25T19:18:52.708Z,59.09
2019-03-25T19:21:24.130Z,59.67
2019-03-25T19:23:55.513Z,59.74
2019-03-25T19:26:26.716Z,59.28
2019-03-25T19:29:01.405Z,59.36
2019-03-25T19:31:34.974Z,59.39
2019-03-25T19:34:06.503Z,59.72
2019-03-25T19:36:38.010Z,59.88
2019-03-25T19:39:09.105Z,60.26
2019-03-25T19:41:40.426Z,60.45
2019-03-25T19:44:11.911Z,60.25
2019-03-25T19:46:43.468Z,60.74
2019-03-25T19:49:15.177Z,60.61
2019-03-25T19:51:46.462Z,60.65
2019-03-25T19:54:19.320Z,60.33
2019-03-25T19:56:50.916Z,60.65
2019-03-25T19:59:22.280Z,60.79
2019-03-25T20:01:53.737Z,61.36
2019-03-25T20:04:25.403Z,61.51
2019-03-25T20:06:56.740Z,61.37
2019-03-25T20:09:28.209Z,61.26
2019-03-25T20:11:59.508Z,61.79
2019-03-25T20:14:30.624Z,61.48
2019-03-25T20:17:01.966Z,61.75
2019-03-25T20:19:34.879Z,62.35
2019-03-25T20:22:06.089Z,62.13
2019-03-25T20:24:37.714Z,62.26
2019-03-25T20:27:08.909Z,62.45
2019-03-25T20:29:40.593Z,62.49
2019-03-25T20:32:11.894Z,63.14
2019-03-25T20:34:43.150Z,63.69
2019-03-25T20:37:14.627Z,63.91
2019-03-25T20:39:45.915Z,63.45
2019-03-25T20:42:17.036Z,63.72
2019-03-25T20:44:48.501Z,63.90
2019-03-25T20:47:20.033Z,64.59
2019-03-25T20:49:51.338Z,64.87
2019-03-25T20:52:24.478Z,66.40
2019-03-25T20:54:59.648Z,67.75
2019-03-25T20:57:32.015Z,68.34
2019-03-25T21:00:04.531Z,68.63
2019-03-25T21:02:44.768Z,68.96
2019-03-25T21:05:09.183Z,68.99
2019-03-25T21:07:40.806Z,69.19
2019-03-25T21:10:11.975Z,69.56
2019-03-25T21:12:43.356Z,69.47
2019-03-25T21:15:16.179Z,69.61
2019-03-25T21:17:47.403Z,69.66
2019-03-25T21:20:19.768Z,69.50
2019-03-25T21:22:51.224Z,69.48
2019-03-25T21:25:22.374Z,69.66
2019-03-25T21:27:53.621Z,69.41
2019-03-25T21:30:28.198Z,69.47
2019-03-25T21:32:58.836Z,69.35
2019-03-25T21:35:30.008Z,69.29
2019-03-25T21:38:01.071Z,69.05
2019-03-25T21:40:34.242Z,69.03
2019-03-25T21:43:05.274Z,68.77
2019-03-25T21:45:37.026Z,69.26
2019-03-25T21:48:08.325Z,69.16
2019-03-25T21:50:39.435Z,68.96
2019-03-25T21:53:10.555Z,69.43
2019-03-25T21:55:41.902Z,69.40
2019-03-25T21:58:13.021Z,69.46
2019-03-25T22:00:44.349Z,69.34
2019-03-25T22:03:15.619Z,69.19
2019-03-25T22:05:47.192Z,69.03
2019-03-25T22:08:18.520Z,69.34
2019-03-25T22:10:49.666Z,69.13
2019-03-25T22:13:20.879Z,69.42
2019-03-25T22:15:52.115Z,68.99
2019-03-25T22:18:23.050Z,68.97
2019-03-25T22:20:54.960Z,69.07
2019-03-25T22:23:25.983Z,69.00
2019-03-25T22:25:56.930Z,69.19
2019-03-25T22:28:27.903Z,69.34
2019-03-25T22:30:58.935Z,69.46
2019-03-25T22:33:29.904Z,69.01
2019-03-25T22:36:01.082Z,69.07
2019-03-25T22:38:32.280Z,69.28
2019-03-25T22:41:03.471Z,69.63
2019-03-25T22:43:34.602Z,69.16
2019-03-25T22:46:05.779Z,69.34
2019-03-25T22:48:36.968Z,69.27
2019-03-25T22:51:08.006Z,69.21
2019-03-25T22:53:39.162Z,69.28
2019-03-25T22:56:10.338Z,69.18
2019-03-25T22:58:41.354Z,69.15
2019-03-25T23:01:12.513Z,69.37
2019-03-25T23:03:43.659Z,69.39
2019-03-25T23:06:15.091Z,69.62
2019-03-25T23:08:46.295Z,69.81
2019-03-25T23:11:18.591Z,69.82
2019-03-25T23:13:49.648Z,70.02
2019-03-25T23:16:21.777Z,69.97
2019-03-25T23:18:52.838Z,70.19
2019-03-25T23:21:26.019Z,70.34
2019-03-25T23:23:57.500Z,70.68
2019-03-25T23:26:28.919Z,70.66
2019-03-25T23:29:00.255Z,70.86
2019-03-25T23:31:31.471Z,71.04
2019-03-25T23:34:02.626Z,71.07
2019-03-25T23:36:33.708Z,70.65
2019-03-25T23:39:06.847Z,70.81
2019-03-25T23:41:38.110Z,71.06
2019-03-25T23:44:09.244Z,70.97
2019-03-25T23:46:40.236Z,70.84
2019-03-25T23:49:12.536Z,70.79
2019-03-25T23:51:43.718Z,70.99
2019-03-25T23:54:15.253Z,71.09
2019-03-25T23:56:46.616Z,71.17
2019-03-25T23:59:17.561Z,71.34
